Time;durP1;ratioP1;P1;durP2;ratioP2;P2;SDS_P1;SDS_P2;PMS_P1;PMS_P2;Temp;Humidity;BMP_temperature;BMP_pressure;BME280_temperature;BME280_humidity;BME280_pressure;Samples;Min_cycle;Max_cycle;Signal;HPM_P1;HPM_P2
2021/01/26 00:00:19;;;;;;;105.97;61.77;;;102.40;2227.20;;;;;;4958820;28;20488;-86
2021/01/26 00:02:46;;;;;;;96.70;52.22;;;102.40;2227.20;;;;;;4958876;28;20259;-86
2021/01/26 00:05:13;;;;;;;71.47;42.53;;;102.40;2227.20;;;;;;4958758;28;20026;-85
2021/01/26 00:07:39;;;;;;;55.13;32.77;;;102.80;2227.20;;;;;;4958506;28;20027;-88
2021/01/26 00:10:07;;;;;;;45.53;30.57;;;77.70;2227.20;;;;;;4975750;28;20464;-86
2021/01/26 00:12:33;;;;;;;50.00;31.77;;;77.70;2227.20;;;;;;4958641;28;20065;-87
2021/01/26 00:14:59;;;;;;;62.27;34.60;;;77.70;2227.20;;;;;;4958781;28;20059;-87
2021/01/26 00:17:25;;;;;;;43.43;28.40;;;77.70;2227.20;;;;;;4958598;28;20047;-85
2021/01/26 00:19:51;;;;;;;38.77;23.17;;;77.70;2227.20;;;;;;4959171;28;20030;-85
2021/01/26 00:22:17;;;;;;;32.23;20.67;;;77.70;2227.20;;;;;;4958635;28;20047;-86
2021/01/26 00:24:42;;;;;;;30.87;19.27;;;77.70;2227.20;;;;;;4958603;28;20500;-85
2021/01/26 00:27:08;;;;;;;31.73;20.87;;;77.70;2227.20;;;;;;4957864;28;20034;-86
2021/01/26 00:29:34;;;;;;;34.53;20.80;;;77.60;2227.20;;;;;;4958362;28;20528;-86
2021/01/26 00:32:00;;;;;;;22.83;15.40;;;77.60;2227.20;;;;;;4958824;28;20027;-86
2021/01/26 00:34:26;;;;;;;29.57;17.30;;;77.50;2227.20;;;;;;4958252;28;20023;-85
2021/01/26 00:36:52;;;;;;;28.27;19.23;;;77.50;2227.20;;;;;;4958191;28;20038;-85
2021/01/26 00:39:18;;;;;;;28.87;17.10;;;77.40;2227.20;;;;;;4958103;28;20019;-85
2021/01/26 00:41:44;;;;;;;31.90;19.60;;;77.40;2227.20;;;;;;4958458;28;20046;-85
2021/01/26 00:44:09;;;;;;;27.70;17.87;;;77.30;2227.20;;;;;;4958281;28;20030;-86
2021/01/26 00:46:35;;;;;;;22.60;13.73;;;77.40;2227.20;;;;;;4958161;28;20033;-84
2021/01/26 00:49:01;;;;;;;16.50;11.40;;;77.20;2227.20;;;;;;4958202;28;20027;-86
2021/01/26 00:51:26;;;;;;;13.07;9.20;;;77.30;2227.20;;;;;;4958476;28;20027;-85
2021/01/26 00:53:52;;;;;;;9.93;6.40;;;77.30;2227.20;;;;;;4958282;28;20105;-86
2021/01/26 00:56:18;;;;;;;13.07;8.33;;;77.20;2227.20;;;;;;4957852;28;20041;-85
2021/01/26 00:58:44;;;;;;;9.57;6.00;;;77.10;2227.20;;;;;;4958066;28;20027;-85
2021/01/26 01:01:10;;;;;;;8.13;5.50;;;77.20;2227.20;;;;;;4957933;28;20034;-85
2021/01/26 01:03:35;;;;;;;10.00;5.90;;;77.10;2227.20;;;;;;4957992;28;20389;-85
2021/01/26 01:06:01;;;;;;;10.53;5.37;;;77.00;2227.20;;;;;;4957856;28;20050;-85
2021/01/26 01:08:27;;;;;;;10.23;6.37;;;76.90;2227.20;;;;;;4957554;28;20035;-84
2021/01/26 01:10:53;;;;;;;10.77;5.97;;;76.90;2227.20;;;;;;4958072;28;20054;-85
2021/01/26 01:13:20;;;;;;;11.33;6.83;;;76.80;2227.20;;;;;;4957848;28;20481;-85
2021/01/26 01:15:46;;;;;;;11.37;5.97;;;52.10;2227.20;;;;;;4957977;28;20033;-85
2021/01/26 01:18:11;;;;;;;8.23;4.70;;;76.90;2227.20;;;;;;4957997;28;20043;-85
2021/01/26 01:20:37;;;;;;;10.43;7.20;;;76.90;2227.20;;;;;;4957855;28;20039;-85
2021/01/26 01:23:04;;;;;;;13.77;7.00;;;76.90;2227.20;;;;;;4958032;28;20077;-84
2021/01/26 01:25:30;;;;;;;8.37;4.73;;;76.90;2227.20;;;;;;4957883;28;20038;-85
2021/01/26 01:27:56;;;;;;;11.10;6.33;;;76.80;2227.20;;;;;;4957192;28;20101;-85
2021/01/26 01:30:28;;;;;;;15.50;9.03;;;76.80;2227.20;;;;;;4957809;28;20027;-85
2021/01/26 01:32:54;;;;;;;11.40;7.13;;;76.90;2227.20;;;;;;4957855;28;20031;-85
2021/01/26 01:35:20;;;;;;;11.23;6.50;;;76.80;2227.20;;;;;;4958440;28;20173;-85
2021/01/26 01:37:47;;;;;;;17.47;8.17;;;52.10;2227.20;;;;;;4958514;28;20560;-85
2021/01/26 01:40:17;;;;;;;13.10;7.57;;;52.10;2227.20;;;;;;4961332;28;20037;-84
2021/01/26 01:42:42;;;;;;;13.50;8.33;;;52.00;2227.20;;;;;;4960925;28;20046;-85
2021/01/26 01:45:09;;;;;;;12.43;6.53;;;52.10;2227.20;;;;;;4961187;28;20027;-83
2021/01/26 01:47:48;;;;;;;13.17;7.70;;;52.10;2227.20;;;;;;4959557;28;20039;-85
2021/01/26 01:50:20;;;;;;;12.07;5.60;;;76.80;2227.20;;;;;;4961099;28;20041;-84
2021/01/26 01:52:55;;;;;;;8.57;4.93;;;76.80;2227.20;;;;;;4977976;28;20035;-85
2021/01/26 01:55:23;;;;;;;7.03;4.10;;;52.10;2227.20;;;;;;4959748;28;20043;-85
2021/01/26 01:58:03;;;;;;;10.00;4.20;;;52.10;2227.20;;;;;;4960746;28;20042;-85
2021/01/26 02:00:30;;;;;;;9.97;5.10;;;51.90;2227.20;;;;;;4959514;28;20054;-86
2021/01/26 02:03:18;;;;;;;9.30;5.53;;;51.90;2227.20;;;;;;4959831;28;20074;-86
2021/01/26 02:05:43;;;;;;;8.60;4.80;;;51.90;2227.20;;;;;;4971609;28;20035;-83
2021/01/26 02:08:19;;;;;;;6.93;3.80;;;52.00;2227.20;;;;;;4966544;28;20038;-84
2021/01/26 02:10:45;;;;;;;8.57;4.13;;;51.90;2227.20;;;;;;4959338;28;20121;-84
2021/01/26 02:13:10;;;;;;;7.40;4.13;;;52.00;2227.20;;;;;;4960861;28;20508;-85
2021/01/26 02:15:36;;;;;;;8.93;4.03;;;52.00;2227.20;;;;;;4975130;28;20497;-85
2021/01/26 02:18:19;;;;;;;14.03;8.53;;;52.00;2227.20;;;;;;4976481;28;20575;-86
2021/01/26 02:21:19;;;;;;;8.27;4.75;;;52.10;2227.20;;;;;;4976475;28;20473;-84
2021/01/26 02:24:06;;;;;;;10.43;6.33;;;51.80;2227.20;;;;;;4976635;28;20027;-86
2021/01/26 02:26:47;;;;;;;11.70;7.13;;;51.90;2227.20;;;;;;4976342;28;20031;-87
2021/01/26 02:29:31;;;;;;;7.03;3.87;;;52.00;2227.20;;;;;;4976467;28;20031;-86
2021/01/26 02:32:38;;;;;;;7.70;5.60;;;52.00;2227.20;;;;;;4968220;28;20089;-87
2021/01/26 02:35:07;;;;;;;13.57;6.47;;;52.00;2227.20;;;;;;4883447;29;20051;-85
2021/01/26 02:37:57;;;;;;;9.47;5.97;;;52.00;2227.20;;;;;;4883254;29;20060;-86
2021/01/26 02:40:31;;;;;;;7.07;4.03;;;52.00;2227.20;;;;;;4883178;29;20044;-85
2021/01/26 02:43:19;;;;;;;10.23;5.87;;;52.00;2227.20;;;;;;4883528;29;20099;-85
2021/01/26 02:46:25;;;;;;;11.90;6.53;;;51.90;2227.20;;;;;;4883355;29;20037;-86
2021/01/26 02:49:01;;;;;;;10.40;6.50;;;52.00;2227.20;;;;;;4882881;29;20028;-87
2021/01/26 02:51:58;;;;;;;18.73;8.50;;;52.00;2227.20;;;;;;4883230;29;20036;-86
2021/01/26 02:54:39;;;;;;;14.87;6.63;;;51.90;2227.20;;;;;;4883272;29;20470;-87
2021/01/26 02:57:45;;;;;;;28.20;14.73;;;52.00;2227.20;;;;;;4898844;29;20511;-86
2021/01/26 03:00:17;;;;;;;11.87;6.60;;;52.10;2227.20;;;;;;4846100;29;20495;-86
2021/01/26 03:02:52;;;;;;;11.40;6.70;;;52.10;2227.20;;;;;;4846112;29;20044;-87
2021/01/26 03:05:37;;;;;;;17.80;10.97;;;52.00;2227.20;;;;;;4861488;29;20285;-86
2021/01/26 03:08:11;;;;;;;15.47;9.63;;;52.10;2227.20;;;;;;4861422;29;20037;-86
2021/01/26 03:10:44;;;;;;;10.87;6.70;;;52.10;2227.20;;;;;;4861188;29;20045;-85
2021/01/26 03:13:13;;;;;;;11.33;5.40;;;52.10;2227.20;;;;;;4882766;29;20028;-85
2021/01/26 03:16:09;;;;;;;13.30;7.67;;;76.80;2227.20;;;;;;4898423;29;20056;-85
2021/01/26 03:18:52;;;;;;;9.50;6.37;;;52.10;2227.20;;;;;;4881825;29;20128;-86
2021/01/26 03:21:19;;;;;;;10.53;6.97;;;52.10;2227.20;;;;;;4898428;29;20025;-86
2021/01/26 03:24:03;;;;;;;19.17;10.67;;;52.10;2227.20;;;;;;4898284;29;20268;-86
2021/01/26 03:26:29;;;;;;;25.10;13.97;;;52.00;2227.20;;;;;;4898019;29;20040;-84
2021/01/26 03:28:58;;;;;;;17.90;9.83;;;52.00;2227.20;;;;;;4898267;29;20088;-84
2021/01/26 03:31:32;;;;;;;16.30;8.47;;;52.00;2227.20;;;;;;4898013;29;20039;-85
2021/01/26 03:33:58;;;;;;;14.83;8.77;;;52.10;2227.20;;;;;;4898618;29;20061;-85
2021/01/26 03:36:24;;;;;;;12.90;7.13;;;52.00;2227.20;;;;;;4926127;28;20043;-85
2021/01/26 03:38:52;;;;;;;15.70;8.00;;;52.00;2227.20;;;;;;4959361;28;20046;-85
2021/01/26 03:41:19;;;;;;;15.67;8.90;;;52.10;2227.20;;;;;;4958733;28;20050;-85
2021/01/26 03:43:46;;;;;;;10.07;6.77;;;52.10;2227.20;;;;;;4958776;28;20450;-85
2021/01/26 03:46:53;;;;;;;12.83;8.63;;;52.10;2227.20;;;;;;4958904;28;20055;-85
2021/01/26 03:49:37;;;;;;;11.77;7.90;;;76.80;2227.20;;;;;;4959561;28;20433;-86
2021/01/26 03:52:21;;;;;;;25.83;17.00;;;76.80;2227.20;;;;;;4958926;28;20035;-87
2021/01/26 03:55:08;;;;;;;33.80;20.00;;;51.90;2227.20;;;;;;4958416;28;20501;-85
2021/01/26 03:58:04;;;;;;;31.37;18.87;;;51.90;2227.20;;;;;;4958032;28;20138;-85
2021/01/26 04:00:42;;;;;;;24.03;12.93;;;51.80;2227.20;;;;;;4958563;28;20401;-85
2021/01/26 04:03:30;;;;;;;18.27;12.60;;;51.90;2227.20;;;;;;4958746;28;20089;-85
2021/01/26 04:06:14;;;;;;;17.13;8.77;;;51.90;2227.20;;;;;;4958813;28;20038;-85
2021/01/26 04:08:46;;;;;;;9.97;6.20;;;51.90;2227.20;;;;;;4958686;28;20034;-85
2021/01/26 04:11:21;;;;;;;7.27;5.40;;;52.00;2227.20;;;;;;4974423;28;20030;-85
2021/01/26 04:14:28;;;;;;;7.90;5.80;;;52.00;2227.20;;;;;;4958570;28;20043;-86
2021/01/26 04:17:01;;;;;;;20.40;12.23;;;51.80;2227.20;;;;;;4916474;29;20052;-86
2021/01/26 04:19:31;;;;;;;14.75;9.35;;;52.00;2227.20;;;;;;4900623;29;20463;-85
2021/01/26 04:21:58;;;;;;;16.17;9.63;;;51.90;2227.20;;;;;;4900651;29;20510;-85
2021/01/26 04:24:32;;;;;;;16.40;11.07;;;52.00;2227.20;;;;;;4900544;29;20031;-85
2021/01/26 04:27:00;;;;;;;13.43;7.27;;;51.90;2227.20;;;;;;4900373;29;20039;-88
2021/01/26 04:29:26;;;;;;;14.83;9.33;;;51.90;2227.20;;;;;;4900598;29;20112;-86
2021/01/26 04:31:53;;;;;;;25.83;14.67;;;52.00;2227.20;;;;;;4900701;29;20439;-86
2021/01/26 04:34:19;;;;;;;35.70;20.47;;;51.90;2227.20;;;;;;4900535;29;20032;-87
2021/01/26 04:36:45;;;;;;;36.53;21.50;;;51.90;2227.20;;;;;;4900205;29;20047;-85
2021/01/26 04:39:10;;;;;;;19.80;12.77;;;51.90;2227.20;;;;;;4900486;29;20028;-86
2021/01/26 04:42:02;;;;;;;25.43;15.10;;;52.00;2227.20;;;;;;4900307;29;20046;-85
2021/01/26 04:44:57;;;;;;;25.60;16.83;;;52.10;2227.20;;;;;;4900344;29;20035;-85
2021/01/26 04:47:26;;;;;;;11.97;8.03;;;52.10;2227.20;;;;;;4916135;29;20232;-85
2021/01/26 04:50:35;;;;;;;18.67;11.10;;;76.80;2227.20;;;;;;4900284;29;20036;-86
2021/01/26 04:53:09;;;;;;;25.00;16.10;;;76.80;2227.20;;;;;;4920030;28;20039;-86
2021/01/26 04:56:19;;;;;;;29.70;17.40;;;76.80;2227.20;;;;;;4968612;28;20042;-85
2021/01/26 04:59:04;;;;;;;22.07;10.97;;;52.10;2227.20;;;;;;4985544;28;20039;-85
2021/01/26 05:02:19;;;;;;;30.67;17.87;;;52.10;2227.20;;;;;;4957806;28;20062;-85
2021/01/26 05:04:51;;;;;;;22.40;13.13;;;52.00;2227.20;;;;;;4900451;29;20051;-86
2021/01/26 05:07:26;;;;;;;15.00;11.02;;;52.10;2227.20;;;;;;4900212;29;20119;-85
2021/01/26 05:09:57;;;;;;;12.27;7.43;;;52.10;2227.20;;;;;;4899934;29;20032;-85
2021/01/26 05:12:25;;;;;;;15.40;9.37;;;52.00;2227.20;;;;;;4916306;29;20028;-86
2021/01/26 05:14:55;;;;;;;19.43;12.23;;;52.00;2227.20;;;;;;4903449;29;20052;-85
2021/01/26 05:17:31;;;;;;;15.60;11.37;;;51.90;2227.20;;;;;;4919794;29;20040;-87
2021/01/26 05:20:07;;;;;;;19.50;13.63;;;52.00;2227.20;;;;;;4903649;29;20083;-86
2021/01/26 05:22:46;;;;;;;20.73;12.33;;;52.10;2227.20;;;;;;4903823;29;20182;-86
2021/01/26 05:25:16;;;;;;;35.97;19.93;;;52.00;2227.20;;;;;;4919300;29;20099;-85
2021/01/26 05:27:43;;;;;;;41.70;24.83;;;52.00;2227.20;;;;;;4919507;29;20032;-86
2021/01/26 05:30:17;;;;;;;29.93;20.33;;;52.00;2227.20;;;;;;4903257;29;20031;-87
2021/01/26 05:32:44;;;;;;;33.23;20.87;;;52.10;2227.20;;;;;;4903555;29;20028;-85
2021/01/26 05:35:14;;;;;;;22.47;14.87;;;52.10;2227.20;;;;;;4903417;29;20039;-85
2021/01/26 05:37:40;;;;;;;16.83;11.53;;;52.10;2227.20;;;;;;4903146;29;20115;-85
2021/01/26 05:40:19;;;;;;;20.63;13.13;;;52.10;2227.20;;;;;;4934387;28;20089;-85
2021/01/26 05:42:51;;;;;;;26.03;16.97;;;52.00;2227.20;;;;;;4961046;28;20027;-85
2021/01/26 05:45:25;;;;;;;41.08;24.05;;;51.90;2227.20;;;;;;4961361;28;20505;-85
2021/01/26 05:48:03;;;;;;;55.57;30.17;;;52.00;2227.20;;;;;;4976665;28;20041;-86
2021/01/26 05:50:32;;;;;;;64.23;31.80;;;52.00;2227.20;;;;;;4961313;28;20535;-87
2021/01/26 05:53:04;;;;;;;53.07;29.40;;;52.10;2227.20;;;;;;4961400;28;20127;-87
2021/01/26 05:55:32;;;;;;;82.20;40.47;;;51.80;2227.20;;;;;;4960745;28;20043;-85
2021/01/26 05:58:10;;;;;;;48.83;28.00;;;52.00;2227.20;;;;;;4960696;28;20035;-86
2021/01/26 06:00:37;;;;;;;40.67;23.27;;;51.90;2227.20;;;;;;4961004;28;20107;-87
2021/01/26 06:03:18;;;;;;;49.50;32.50;;;51.80;2227.20;;;;;;4960930;28;20039;-86
2021/01/26 06:06:07;;;;;;;30.53;19.17;;;52.00;2227.20;;;;;;4960868;28;20031;-85
2021/01/26 06:08:48;;;;;;;41.87;25.70;;;52.10;2227.20;;;;;;4960758;28;20089;-85
2021/01/26 06:11:16;;;;;;;35.07;24.20;;;76.80;2227.20;;;;;;4960498;28;20596;-87
2021/01/26 06:13:41;;;;;;;28.47;17.80;;;76.80;2227.20;;;;;;4960683;28;20039;-85
2021/01/26 06:16:11;;;;;;;25.67;17.50;;;76.90;2227.20;;;;;;4960710;28;20031;-85
2021/01/26 06:18:38;;;;;;;27.77;16.07;;;77.00;2227.20;;;;;;4960550;28;20544;-85
2021/01/26 06:21:11;;;;;;;26.80;17.37;;;76.90;2227.20;;;;;;4960025;28;20031;-87
2021/01/26 06:23:38;;;;;;;139.40;85.00;;;76.90;2227.20;;;;;;4960407;28;20524;-87
2021/01/26 06:26:09;;;;;;;93.47;61.10;;;52.00;2227.20;;;;;;4960165;28;20039;-86
2021/01/26 06:28:58;;;;;;;75.03;46.63;;;52.00;2227.20;;;;;;4960602;28;20029;-86
2021/01/26 06:31:53;;;;;;;62.97;35.93;;;52.00;2227.20;;;;;;4962720;28;20039;-86
2021/01/26 06:34:34;;;;;;;50.93;31.60;;;52.10;2227.20;;;;;;4960408;28;20031;-85
2021/01/26 06:36:59;;;;;;;69.07;47.30;;;76.80;2227.20;;;;;;4960304;28;20030;-85
2021/01/26 06:39:47;;;;;;;56.10;35.10;;;52.10;2227.20;;;;;;4960237;28;20030;-88
2021/01/26 06:42:30;;;;;;;55.33;33.13;;;76.90;2227.20;;;;;;4960224;28;20658;-85
2021/01/26 06:45:14;;;;;;;67.47;42.40;;;77.00;2227.20;;;;;;4959701;28;20469;-84
2021/01/26 06:48:07;;;;;;;51.70;33.33;;;77.00;2227.20;;;;;;4959986;28;20030;-86
2021/01/26 06:50:35;;;;;;;;;;;76.80;2227.20;;;;;;4977470;28;20081;-86
2021/01/26 06:53:04;;;;;;;57.57;37.07;;;52.10;2227.20;;;;;;4977136;28;19906;-89
2021/01/26 06:55:47;;;;;;;68.70;39.33;;;76.80;2227.20;;;;;;4973218;28;20110;-86
2021/01/26 06:58:28;;;;;;;61.47;35.33;;;76.80;2227.20;;;;;;4959409;28;20038;-86
2021/01/26 07:01:21;;;;;;;85.63;52.23;;;76.80;2227.20;;;;;;4959815;28;20469;-86
2021/01/26 07:04:21;;;;;;;122.07;66.70;;;76.90;2227.20;;;;;;4959767;28;20034;-85
2021/01/26 07:06:57;;;;;;;144.93;90.83;;;77.00;2227.20;;;;;;4974021;28;20107;-85
2021/01/26 07:09:47;;;;;;;78.30;47.80;;;77.10;2227.20;;;;;;4959433;28;20038;-85
2021/01/26 07:12:44;;;;;;;232.27;122.27;;;77.00;2227.20;;;;;;4959381;28;20035;-86
2021/01/26 07:15:16;;;;;;;701.50;381.10;;;76.80;2227.20;;;;;;4959172;28;20042;-86
2021/01/26 07:17:57;;;;;;;440.03;236.40;;;52.10;2227.20;;;;;;4959309;28;20046;-88
2021/01/26 07:21:00;;;;;;;79.13;45.97;;;76.80;2227.20;;;;;;4959203;28;20204;-85
2021/01/26 07:23:44;;;;;;;67.55;41.45;;;76.90;2227.20;;;;;;4958956;28;20544;-85
2021/01/26 07:26:31;;;;;;;77.50;51.93;;;76.90;2227.20;;;;;;4973961;28;20042;-86
2021/01/26 07:29:31;;;;;;;107.90;67.73;;;76.90;2227.20;;;;;;4953247;29;20094;-85
2021/01/26 07:32:12;;;;;;;97.90;66.30;;;77.10;2227.20;;;;;;4955737;28;20035;-88
2021/01/26 07:34:55;;;;;;;69.53;45.33;;;77.10;2227.20;;;;;;4959332;28;20083;-86
2021/01/26 07:38:01;;;;;;;78.25;49.20;;;77.20;2227.20;;;;;;4958853;28;20042;-86
2021/01/26 07:40:48;;;;;;;72.43;45.60;;;77.10;2227.20;;;;;;4974318;28;20080;-87
2021/01/26 07:43:23;;;;;;;60.50;39.90;;;77.10;2227.20;;;;;;4957849;28;20027;-87
2021/01/26 07:46:20;;;;;;;151.27;95.87;;;77.10;2227.20;;;;;;4963072;28;20035;-87
2021/01/26 07:49:14;;;;;;;76.37;44.67;;;77.10;2227.20;;;;;;4948744;28;20039;-86
2021/01/26 07:51:41;;;;;;;;;;;77.00;2227.20;;;;;;4959348;28;20023;-84
2021/01/26 07:54:15;;;;;;;37.30;24.43;;;77.10;2227.20;;;;;;4958666;28;19921;-87
2021/01/26 07:56:41;;;;;;;34.43;22.63;;;77.10;2227.20;;;;;;4958755;28;20073;-87
2021/01/26 07:59:15;;;;;;;42.23;28.23;;;77.10;2227.20;;;;;;4955110;28;20473;-89
2021/01/26 08:01:49;;;;;;;36.17;23.20;;;77.20;2227.20;;;;;;4958689;28;20424;-87
2021/01/26 08:04:16;;;;;;;42.67;27.43;;;77.20;2227.20;;;;;;4958197;28;20080;-86
2021/01/26 08:06:49;;;;;;;53.40;33.70;;;77.30;2227.20;;;;;;4957673;28;20039;-87
2021/01/26 08:09:22;;;;;;;48.78;29.80;;;77.30;2227.20;;;;;;4954945;29;20485;-87
2021/01/26 08:12:00;;;;;;;44.43;27.27;;;77.40;2227.20;;;;;;4940761;28;20122;-90
2021/01/26 08:14:33;;;;;;;43.57;26.80;;;77.40;2227.20;;;;;;4975313;28;20055;-88
2021/01/26 08:17:01;;;;;;;43.47;27.45;;;77.40;2227.20;;;;;;4958552;28;20047;-89
2021/01/26 08:19:34;;;;;;;63.57;39.27;;;77.40;2227.20;;;;;;4975330;28;20038;-90
2021/01/26 08:22:21;;;;;;;85.00;55.87;;;77.40;2227.20;;;;;;4958671;28;20035;-92
2021/01/26 08:24:57;;;;;;;58.73;37.60;;;77.50;2227.20;;;;;;4958578;28;20050;-90
2021/01/26 08:27:28;;;;;;;47.73;32.77;;;77.50;2227.20;;;;;;4958951;28;20027;-92
2021/01/26 08:30:03;;;;;;;56.83;34.73;;;77.50;2227.20;;;;;;4959191;28;20448;-88
2021/01/26 08:32:29;;;;;;;48.67;34.90;;;77.60;2227.20;;;;;;4955377;28;20026;-88
2021/01/26 08:35:05;;;;;;;56.73;36.47;;;77.60;2227.20;;;;;;4957627;28;20035;-89
2021/01/26 08:37:44;;;;;;;89.60;56.77;;;77.50;2227.20;;;;;;4952243;28;20130;-88
2021/01/26 08:40:16;;;;;;;71.97;43.43;;;77.60;2227.20;;;;;;4973712;28;20465;-89
2021/01/26 08:42:42;;;;;;;65.00;43.10;;;77.60;2227.20;;;;;;4954252;28;20055;-84
2021/01/26 08:45:26;;;;;;;60.97;40.27;;;77.50;2227.20;;;;;;4957136;28;20066;-88
2021/01/26 08:47:56;;;;;;;80.07;49.43;;;77.40;2227.20;;;;;;4952745;28;20042;-88
2021/01/26 08:50:42;;;;;;;200.27;98.47;;;77.40;2227.20;;;;;;4940699;29;20079;-85
2021/01/26 08:53:26;;;;;;;97.17;57.80;;;77.50;2227.20;;;;;;4971692;28;20093;-83
2021/01/26 08:56:00;;;;;;;59.63;35.70;;;77.50;2227.20;;;;;;4953463;28;20070;-85
2021/01/26 08:59:00;;;;;;;55.53;37.93;;;77.50;2227.20;;;;;;4960527;28;20023;-85
2021/01/26 09:01:35;;;;;;;53.73;33.90;;;77.50;2227.20;;;;;;4882890;29;20043;-85
2021/01/26 09:04:12;;;;;;;65.53;42.47;;;77.60;2227.20;;;;;;4883053;29;20096;-85
2021/01/26 09:06:38;;;;;;;62.83;44.30;;;77.60;2227.20;;;;;;4903666;29;20492;-84
2021/01/26 09:09:27;;;;;;;69.17;42.00;;;77.70;2227.20;;;;;;4899710;29;20040;-87
2021/01/26 09:12:04;;;;;;;63.83;38.30;;;77.70;2227.20;;;;;;4891847;29;20444;-84
2021/01/26 09:14:44;;;;;;;74.33;44.60;;;77.70;2227.20;;;;;;4881935;29;20049;-87
2021/01/26 09:17:49;;;;;;;77.97;44.97;;;77.70;2227.20;;;;;;4877694;29;20575;-84
2021/01/26 09:20:22;;;;;;;81.13;46.07;;;102.40;2227.20;;;;;;4896645;29;20607;-84
2021/01/26 09:22:48;;;;;;;77.27;48.97;;;102.40;2227.20;;;;;;4883846;29;20068;-85
2021/01/26 09:25:24;;;;;;;76.63;45.87;;;102.40;2227.20;;;;;;4881039;29;20135;-89
2021/01/26 09:28:02;;;;;;;58.60;38.57;;;102.40;2227.20;;;;;;4884199;29;20032;-85
2021/01/26 09:30:29;;;;;;;59.40;36.43;;;102.50;2227.20;;;;;;4899481;29;20037;-83
2021/01/26 09:32:55;;;;;;;68.93;39.83;;;102.50;2227.20;;;;;;4883715;29;20024;-83
2021/01/26 09:35:25;;;;;;;76.73;46.87;;;102.50;2201.60;;;;;;4900128;29;20032;-87
2021/01/26 09:38:11;;;;;;;80.07;51.67;;;102.60;2227.20;;;;;;4945722;28;20053;-80
2021/01/26 09:40:40;;;;;;;79.87;49.13;;;102.60;2227.20;;;;;;4958531;28;20026;-83
2021/01/26 09:43:14;;;;;;;80.27;48.63;;;102.70;2227.20;;;;;;4959071;28;20027;-84
2021/01/26 09:45:41;;;;;;;95.13;54.43;;;102.70;2227.20;;;;;;4972285;28;20135;-80
2021/01/26 09:48:08;;;;;;;84.03;50.67;;;102.70;2227.20;;;;;;4960752;28;20039;-81
2021/01/26 09:50:34;;;;;;;82.90;45.87;;;102.70;2227.20;;;;;;4957744;29;20020;-81
2021/01/26 09:53:03;;;;;;;78.27;46.20;;;102.70;2227.20;;;;;;4954839;28;20037;-89
2021/01/26 09:55:30;;;;;;;76.33;45.33;;;102.80;2227.20;;;;;;4959984;28;20042;-87
2021/01/26 09:57:57;;;;;;;68.47;40.80;;;102.80;2227.20;;;;;;4959491;28;20039;-86
2021/01/26 10:00:26;;;;;;;68.47;42.20;;;102.80;2201.60;;;;;;4976169;28;20043;-82
2021/01/26 10:02:59;;;;;;;87.17;51.13;;;102.90;2227.20;;;;;;4959879;28;20035;-83
2021/01/26 10:05:28;;;;;;;61.40;38.03;;;102.90;2227.20;;;;;;4975893;28;20099;-82
2021/01/26 10:08:07;;;;;;;61.37;39.73;;;102.80;2201.60;;;;;;4959476;28;20035;-84
2021/01/26 10:10:32;;;;;;;50.43;30.33;;;102.70;2201.60;;;;;;4959809;28;20417;-82
2021/01/26 10:13:21;;;;;;;51.47;31.93;;;102.80;2176.00;;;;;;4959698;28;20074;-82
2021/01/26 10:15:47;;;;;;;49.67;28.63;;;102.80;2176.00;;;;;;4976113;28;20039;-81
2021/01/26 10:18:20;;;;;;;59.30;39.23;;;102.80;2176.00;;;;;;4975610;28;20121;-85
2021/01/26 10:20:45;;;;;;;46.95;27.85;;;102.80;2150.40;;;;;;4957356;28;20079;-84
2021/01/26 10:23:20;;;;;;;32.43;20.97;;;102.80;2176.00;;;;;;4976554;28;20375;-85
2021/01/26 10:25:46;;;;;;;33.27;18.60;;;102.70;2124.80;;;;;;4967410;28;20031;-81
2021/01/26 10:28:25;;;;;;;37.87;19.90;;;102.50;2124.80;;;;;;4965420;28;20070;-84
2021/01/26 10:30:52;;;;;;;38.63;20.20;;;102.50;2150.40;;;;;;4964673;28;20031;-81
2021/01/26 10:33:35;;;;;;;32.37;19.17;;;102.50;2150.40;;;;;;4973143;28;20035;-81
2021/01/26 10:36:20;;;;;;;34.53;18.98;;;102.40;2150.40;;;;;;4973311;28;20038;-83
2021/01/26 10:38:47;;;;;;;41.53;22.97;;;102.50;2150.40;;;;;;4957977;28;20069;-85
2021/01/26 10:41:29;;;;;;;50.40;28.77;;;102.60;2176.00;;;;;;4957045;28;20019;-85
2021/01/26 10:44:04;;;;;;;40.67;23.45;;;102.70;2124.80;;;;;;4974726;28;20037;-86
2021/01/26 10:46:49;;;;;;;28.50;20.80;;;102.70;2150.40;;;;;;4954219;29;20502;-84
2021/01/26 10:49:21;;;;;;;31.73;22.17;;;102.60;2073.60;;;;;;4954414;28;20031;-88
2021/01/26 10:51:47;;;;;;;28.40;20.30;;;102.70;2099.20;;;;;;4957475;28;20027;-90
2021/01/26 10:54:13;;;;;;;39.97;24.60;;;102.70;2099.20;;;;;;4956811;28;20038;-86
2021/01/26 10:56:39;;;;;;;33.40;20.67;;;102.80;2124.80;;;;;;4955569;28;20052;-86
2021/01/26 10:59:04;;;;;;;30.87;21.13;;;102.80;2099.20;;;;;;4956679;28;20125;-84
2021/01/26 11:01:31;;;;;;;38.60;25.50;;;102.70;2073.60;;;;;;4957257;28;20038;-85
2021/01/26 11:03:57;;;;;;;51.20;32.60;;;102.70;2073.60;;;;;;4955972;28;20027;-86
2021/01/26 11:06:24;;;;;;;50.30;33.13;;;102.70;2073.60;;;;;;4956694;28;20041;-87
2021/01/26 11:08:51;;;;;;;43.53;28.77;;;102.70;2099.20;;;;;;4955207;28;20566;-88
2021/01/26 11:11:20;;;;;;;58.03;33.53;;;102.70;2099.20;;;;;;4957788;28;20049;-84
2021/01/26 11:13:46;;;;;;;54.40;34.90;;;102.80;2073.60;;;;;;4958268;28;20050;-84
2021/01/26 11:16:12;;;;;;;52.83;32.10;;;102.80;2099.20;;;;;;4957999;28;20039;-90
2021/01/26 11:18:38;;;;;;;41.20;23.80;;;102.80;2099.20;;;;;;4957354;28;20038;-87
2021/01/26 11:21:05;;;;;;;30.47;20.40;;;102.70;2073.60;;;;;;4952029;29;20114;-88
2021/01/26 11:23:30;;;;;;;29.93;20.37;;;102.70;2099.20;;;;;;4937228;29;20105;-89
2021/01/26 11:25:57;;;;;;;30.67;18.53;;;102.70;2099.20;;;;;;4952240;28;20079;-85
2021/01/26 11:28:22;;;;;;;32.83;21.00;;;102.70;2099.20;;;;;;4957086;28;20035;-87
2021/01/26 11:30:48;;;;;;;36.87;22.90;;;102.80;2099.20;;;;;;4952735;28;20042;-89
2021/01/26 11:33:14;;;;;;;38.63;25.07;;;102.80;2124.80;;;;;;4946567;28;20121;-86
2021/01/26 11:35:40;;;;;;;37.53;24.73;;;102.80;2124.80;;;;;;4955135;28;20465;-86
2021/01/26 11:38:07;;;;;;;37.33;21.83;;;102.80;2099.20;;;;;;4957068;28;20448;-89
2021/01/26 11:40:32;;;;;;;66.97;39.03;;;102.70;2048.00;;;;;;4956423;28;20027;-85
2021/01/26 11:42:58;;;;;;;52.10;33.60;;;102.80;2099.20;;;;;;4956294;28;20373;-84
2021/01/26 11:45:34;;;;;;;54.43;31.20;;;102.80;2099.20;;;;;;4957211;28;20089;-84
2021/01/26 11:48:00;;;;;;;30.87;19.13;;;102.70;2099.20;;;;;;4956117;28;20058;-90
2021/01/26 11:50:27;;;;;;;27.57;18.83;;;102.60;2099.20;;;;;;4955640;28;20578;-86
2021/01/26 11:52:53;;;;;;;40.70;27.77;;;102.60;2073.60;;;;;;4956546;28;20114;-85
2021/01/26 11:55:24;;;;;;;35.07;24.50;;;102.70;2022.40;;;;;;4947357;29;20034;-85
2021/01/26 11:57:51;;;;;;;36.30;24.60;;;102.60;2048.00;;;;;;4951023;29;20039;-86
2021/01/26 12:00:21;;;;;;;25.80;17.87;;;102.60;1996.80;;;;;;4956359;28;20030;-84
2021/01/26 12:02:46;;;;;;;18.80;14.30;;;102.50;1971.20;;;;;;4957311;28;20035;-85
2021/01/26 12:05:12;;;;;;;22.37;16.30;;;102.50;2022.40;;;;;;4958539;28;20023;-86
2021/01/26 12:07:39;;;;;;;23.73;14.07;;;102.50;1996.80;;;;;;4956766;28;20093;-86
2021/01/26 12:10:05;;;;;;;26.67;15.97;;;102.50;1971.20;;;;;;4963389;28;20031;-86
2021/01/26 12:12:31;;;;;;;23.47;15.70;;;102.50;1971.20;;;;;;4939067;29;20042;-86
2021/01/26 12:14:57;;;;;;;23.57;17.03;;;102.50;1971.20;;;;;;4963997;28;20405;-86
2021/01/26 12:17:23;;;;;;;28.10;18.50;;;102.50;1971.20;;;;;;4968564;28;20050;-86
2021/01/26 12:19:49;;;;;;;24.57;17.03;;;102.50;1971.20;;;;;;4963012;28;20038;-86
2021/01/26 12:22:15;;;;;;;22.90;13.30;;;102.60;1996.80;;;;;;4967582;28;20026;-86
2021/01/26 12:24:40;;;;;;;21.80;14.40;;;102.50;1971.20;;;;;;4973320;28;20038;-87
2021/01/26 12:27:06;;;;;;;21.67;14.93;;;102.50;1971.20;;;;;;4971619;28;20035;-87
2021/01/26 12:29:32;;;;;;;21.50;13.87;;;102.60;1971.20;;;;;;4958149;28;20061;-86
2021/01/26 12:31:57;;;;;;;25.00;16.10;;;102.60;1894.40;;;;;;4958554;28;20035;-87
2021/01/26 12:34:23;;;;;;;24.53;15.17;;;102.50;1868.80;;;;;;4973804;28;20097;-87
2021/01/26 12:36:50;;;;;;;28.30;16.43;;;102.50;1868.80;;;;;;4959869;28;20057;-85
2021/01/26 12:39:16;;;;;;;22.87;15.27;;;102.60;1920.00;;;;;;4969656;28;20058;-86
2021/01/26 12:41:42;;;;;;;20.33;14.20;;;102.50;1894.40;;;;;;4969788;28;20038;-87